sensor_id;sensor_type;location;lat;lon;timestamp;P1;durP1;ratioP1;P2;durP2;ratioP2
1837;SDS011;918;50.796;6.772;2022-08-20T00:00:29;5.10;;;4.60;;
1837;SDS011;918;50.796;6.772;2022-08-20T00:02:57;5.70;;;5.20;;
1837;SDS011;918;50.796;6.772;2022-08-20T00:05:28;4.67;;;4.47;;
1837;SDS011;918;50.796;6.772;2022-08-20T00:07:57;5.17;;;4.80;;
1837;SDS011;918;50.796;6.772;2022-08-20T00:10:23;5.07;;;4.67;;
1837;SDS011;918;50.796;6.772;2022-08-20T00:12:49;4.33;;;4.03;;
1837;SDS011;918;50.796;6.772;2022-08-20T00:15:15;5.30;;;4.87;;
1837;SDS011;918;50.796;6.772;2022-08-20T00:17:45;5.30;;;4.90;;
1837;SDS011;918;50.796;6.772;2022-08-20T00:20:12;4.97;;;4.57;;
1837;SDS011;918;50.796;6.772;2022-08-20T00:22:38;4.43;;;4.20;;
1837;SDS011;918;50.796;6.772;2022-08-20T00:25:04;4.17;;;3.87;;
1837;SDS011;918;50.796;6.772;2022-08-20T00:27:33;4.00;;;3.70;;
1837;SDS011;918;50.796;6.772;2022-08-20T00:29:58;4.30;;;4.00;;
1837;SDS011;918;50.796;6.772;2022-08-20T00:32:23;4.53;;;3.50;;
1837;SDS011;918;50.796;6.772;2022-08-20T00:34:49;2.90;;;2.70;;
1837;SDS011;918;50.796;6.772;2022-08-20T00:37:14;2.90;;;2.70;;
1837;SDS011;918;50.796;6.772;2022-08-20T00:39:40;3.10;;;2.80;;
1837;SDS011;918;50.796;6.772;2022-08-20T00:42:05;3.40;;;3.10;;
1837;SDS011;918;50.796;6.772;2022-08-20T00:44:32;3.00;;;2.80;;
1837;SDS011;918;50.796;6.772;2022-08-20T00:46:57;3.80;;;3.50;;
1837;SDS011;918;50.796;6.772;2022-08-20T00:49:24;3.20;;;2.97;;
1837;SDS011;918;50.796;6.772;2022-08-20T00:52:03;3.67;;;3.43;;
1837;SDS011;918;50.796;6.772;2022-08-20T00:54:37;4.10;;;3.90;;
1837;SDS011;918;50.796;6.772;2022-08-20T00:57:06;4.83;;;4.43;;
1837;SDS011;918;50.796;6.772;2022-08-20T00:59:35;5.30;;;4.80;;
1837;SDS011;918;50.796;6.772;2022-08-20T01:02:03;5.10;;;4.70;;
1837;SDS011;918;50.796;6.772;2022-08-20T01:04:32;6.03;;;5.30;;
1837;SDS011;918;50.796;6.772;2022-08-20T01:06:58;5.27;;;4.87;;
1837;SDS011;918;50.796;6.772;2022-08-20T01:09:25;6.10;;;5.60;;
1837;SDS011;918;50.796;6.772;2022-08-20T01:11:50;5.50;;;5.10;;
1837;SDS011;918;50.796;6.772;2022-08-20T01:14:15;5.43;;;5.03;;
1837;SDS011;918;50.796;6.772;2022-08-20T01:17:00;5.80;;;5.27;;
1837;SDS011;918;50.796;6.772;2022-08-20T01:19:28;6.20;;;5.70;;
1837;SDS011;918;50.796;6.772;2022-08-20T01:21:56;4.90;;;4.60;;
1837;SDS011;918;50.796;6.772;2022-08-20T01:24:40;5.47;;;5.07;;
1837;SDS011;918;50.796;6.772;2022-08-20T01:27:06;5.60;;;5.20;;
1837;SDS011;918;50.796;6.772;2022-08-20T01:29:36;6.07;;;5.57;;
1837;SDS011;918;50.796;6.772;2022-08-20T01:32:03;6.00;;;5.50;;
1837;SDS011;918;50.796;6.772;2022-08-20T01:34:29;5.70;;;5.30;;
1837;SDS011;918;50.796;6.772;2022-08-20T01:36:55;5.90;;;5.40;;
1837;SDS011;918;50.796;6.772;2022-08-20T01:39:26;5.30;;;5.00;;
1837;SDS011;918;50.796;6.772;2022-08-20T01:42:11;5.80;;;5.40;;
1837;SDS011;918;50.796;6.772;2022-08-20T01:44:42;6.13;;;5.73;;
1837;SDS011;918;50.796;6.772;2022-08-20T01:47:16;6.03;;;5.53;;
1837;SDS011;918;50.796;6.772;2022-08-20T01:49:51;5.53;;;5.13;;
1837;SDS011;918;50.796;6.772;2022-08-20T01:52:28;6.70;;;6.20;;
1837;SDS011;918;50.796;6.772;2022-08-20T01:54:57;6.77;;;6.27;;
1837;SDS011;918;50.796;6.772;2022-08-20T01:57:23;7.03;;;6.47;;
1837;SDS011;918;50.796;6.772;2022-08-20T01:59:50;7.03;;;6.33;;
1837;SDS011;918;50.796;6.772;2022-08-20T02:02:16;7.10;;;6.40;;
1837;SDS011;918;50.796;6.772;2022-08-20T02:04:42;7.03;;;6.53;;
1837;SDS011;918;50.796;6.772;2022-08-20T02:07:12;6.57;;;6.17;;
1837;SDS011;918;50.796;6.772;2022-08-20T02:09:41;6.50;;;6.00;;
1837;SDS011;918;50.796;6.772;2022-08-20T02:12:07;6.33;;;5.87;;
1837;SDS011;918;50.796;6.772;2022-08-20T02:14:33;6.07;;;5.57;;
1837;SDS011;918;50.796;6.772;2022-08-20T02:16:59;6.70;;;6.30;;
1837;SDS011;918;50.796;6.772;2022-08-20T02:19:27;7.17;;;6.77;;
1837;SDS011;918;50.796;6.772;2022-08-20T02:21:55;6.57;;;6.00;;
1837;SDS011;918;50.796;6.772;2022-08-20T02:24:22;7.90;;;7.30;;
1837;SDS011;918;50.796;6.772;2022-08-20T02:26:48;6.47;;;6.00;;
1837;SDS011;918;50.796;6.772;2022-08-20T02:29:14;7.00;;;6.40;;
1837;SDS011;918;50.796;6.772;2022-08-20T02:31:41;8.37;;;7.77;;
1837;SDS011;918;50.796;6.772;2022-08-20T02:34:09;7.50;;;7.00;;
1837;SDS011;918;50.796;6.772;2022-08-20T02:36:35;8.60;;;7.97;;
1837;SDS011;918;50.796;6.772;2022-08-20T02:39:06;6.57;;;6.10;;
1837;SDS011;918;50.796;6.772;2022-08-20T02:41:33;7.37;;;6.87;;
1837;SDS011;918;50.796;6.772;2022-08-20T02:43:59;7.30;;;6.73;;
1837;SDS011;918;50.796;6.772;2022-08-20T02:46:24;7.67;;;6.97;;
1837;SDS011;918;50.796;6.772;2022-08-20T02:48:52;8.13;;;7.43;;
1837;SDS011;918;50.796;6.772;2022-08-20T02:51:18;8.20;;;7.60;;
1837;SDS011;918;50.796;6.772;2022-08-20T02:53:43;7.77;;;7.37;;
1837;SDS011;918;50.796;6.772;2022-08-20T02:56:09;6.80;;;6.37;;
1837;SDS011;918;50.796;6.772;2022-08-20T02:58:35;8.80;;;8.20;;
1837;SDS011;918;50.796;6.772;2022-08-20T03:01:01;7.83;;;7.33;;
1837;SDS011;918;50.796;6.772;2022-08-20T03:03:26;7.83;;;7.20;;
1837;SDS011;918;50.796;6.772;2022-08-20T03:05:53;8.93;;;8.33;;
1837;SDS011;918;50.796;6.772;2022-08-20T03:08:20;8.80;;;8.20;;
1837;SDS011;918;50.796;6.772;2022-08-20T03:10:46;7.80;;;7.20;;
1837;SDS011;918;50.796;6.772;2022-08-20T03:13:12;8.90;;;8.23;;
1837;SDS011;918;50.796;6.772;2022-08-20T03:15:48;8.90;;;8.30;;
1837;SDS011;918;50.796;6.772;2022-08-20T03:18:16;8.73;;;8.13;;
1837;SDS011;918;50.796;6.772;2022-08-20T03:20:42;9.00;;;8.10;;
1837;SDS011;918;50.796;6.772;2022-08-20T03:23:08;9.00;;;8.40;;
1837;SDS011;918;50.796;6.772;2022-08-20T03:25:33;9.07;;;8.00;;
1837;SDS011;918;50.796;6.772;2022-08-20T03:27:59;8.53;;;7.93;;
1837;SDS011;918;50.796;6.772;2022-08-20T03:30:26;8.53;;;7.93;;
1837;SDS011;918;50.796;6.772;2022-08-20T03:32:52;8.60;;;8.00;;
1837;SDS011;918;50.796;6.772;2022-08-20T03:35:19;8.70;;;8.17;;
1837;SDS011;918;50.796;6.772;2022-08-20T03:37:45;8.90;;;8.13;;
1837;SDS011;918;50.796;6.772;2022-08-20T03:40:13;9.20;;;8.60;;
1837;SDS011;918;50.796;6.772;2022-08-20T03:42:41;8.30;;;7.60;;
1837;SDS011;918;50.796;6.772;2022-08-20T03:45:08;9.53;;;8.77;;
1837;SDS011;918;50.796;6.772;2022-08-20T03:47:34;9.73;;;8.73;;
1837;SDS011;918;50.796;6.772;2022-08-20T03:50:00;8.90;;;8.37;;
1837;SDS011;918;50.796;6.772;2022-08-20T03:52:26;9.27;;;8.57;;
1837;SDS011;918;50.796;6.772;2022-08-20T03:54:53;10.53;;;9.70;;
1837;SDS011;918;50.796;6.772;2022-08-20T03:57:19;9.40;;;8.70;;
1837;SDS011;918;50.796;6.772;2022-08-20T03:59:44;9.83;;;9.03;;
1837;SDS011;918;50.796;6.772;2022-08-20T04:02:10;10.63;;;9.90;;
1837;SDS011;918;50.796;6.772;2022-08-20T04:04:36;10.93;;;10.23;;
1837;SDS011;918;50.796;6.772;2022-08-20T04:07:12;9.73;;;9.07;;
1837;SDS011;918;50.796;6.772;2022-08-20T04:09:42;10.70;;;9.87;;
1837;SDS011;918;50.796;6.772;2022-08-20T04:12:08;11.93;;;11.00;;
1837;SDS011;918;50.796;6.772;2022-08-20T04:14:36;10.80;;;10.00;;
1837;SDS011;918;50.796;6.772;2022-08-20T04:17:03;10.57;;;9.87;;
1837;SDS011;918;50.796;6.772;2022-08-20T04:19:30;10.90;;;10.10;;
1837;SDS011;918;50.796;6.772;2022-08-20T04:21:55;11.37;;;10.47;;
1837;SDS011;918;50.796;6.772;2022-08-20T04:24:20;11.20;;;10.40;;
1837;SDS011;918;50.796;6.772;2022-08-20T04:26:45;11.60;;;10.47;;
1837;SDS011;918;50.796;6.772;2022-08-20T04:29:11;11.57;;;10.57;;
1837;SDS011;918;50.796;6.772;2022-08-20T04:31:36;12.23;;;11.03;;
1837;SDS011;918;50.796;6.772;2022-08-20T04:34:02;11.67;;;10.77;;
1837;SDS011;918;50.796;6.772;2022-08-20T04:36:31;12.97;;;11.87;;
1837;SDS011;918;50.796;6.772;2022-08-20T04:38:57;12.00;;;11.20;;
1837;SDS011;918;50.796;6.772;2022-08-20T04:41:22;11.93;;;11.07;;
1837;SDS011;918;50.796;6.772;2022-08-20T04:43:48;14.07;;;12.97;;
1837;SDS011;918;50.796;6.772;2022-08-20T04:46:13;13.80;;;12.70;;
1837;SDS011;918;50.796;6.772;2022-08-20T04:48:39;17.03;;;14.60;;
1837;SDS011;918;50.796;6.772;2022-08-20T04:51:06;15.43;;;14.07;;
1837;SDS011;918;50.796;6.772;2022-08-20T04:53:32;15.93;;;14.53;;
1837;SDS011;918;50.796;6.772;2022-08-20T04:55:58;16.07;;;14.60;;
1837;SDS011;918;50.796;6.772;2022-08-20T04:58:25;16.10;;;14.70;;
1837;SDS011;918;50.796;6.772;2022-08-20T05:00:54;15.70;;;14.50;;
1837;SDS011;918;50.796;6.772;2022-08-20T05:03:21;17.30;;;15.90;;
1837;SDS011;918;50.796;6.772;2022-08-20T05:05:47;17.60;;;16.00;;
1837;SDS011;918;50.796;6.772;2022-08-20T05:08:14;16.37;;;15.10;;
1837;SDS011;918;50.796;6.772;2022-08-20T05:10:40;17.43;;;16.00;;
1837;SDS011;918;50.796;6.772;2022-08-20T05:13:06;16.93;;;15.63;;
1837;SDS011;918;50.796;6.772;2022-08-20T05:15:32;16.47;;;15.07;;
1837;SDS011;918;50.796;6.772;2022-08-20T05:17:59;15.23;;;14.00;;
1837;SDS011;918;50.796;6.772;2022-08-20T05:20:26;17.13;;;15.77;;
1837;SDS011;918;50.796;6.772;2022-08-20T05:22:54;18.03;;;16.53;;
1837;SDS011;918;50.796;6.772;2022-08-20T05:25:20;16.73;;;15.17;;
1837;SDS011;918;50.796;6.772;2022-08-20T05:27:45;16.93;;;15.70;;
1837;SDS011;918;50.796;6.772;2022-08-20T05:30:11;19.83;;;18.13;;
1837;SDS011;918;50.796;6.772;2022-08-20T05:32:36;18.73;;;17.30;;
1837;SDS011;918;50.796;6.772;2022-08-20T05:35:07;17.27;;;15.93;;
1837;SDS011;918;50.796;6.772;2022-08-20T05:37:35;18.90;;;17.40;;
1837;SDS011;918;50.796;6.772;2022-08-20T05:40:01;17.17;;;15.87;;
1837;SDS011;918;50.796;6.772;2022-08-20T05:42:32;16.50;;;15.20;;
1837;SDS011;918;50.796;6.772;2022-08-20T05:44:57;17.03;;;15.50;;
1837;SDS011;918;50.796;6.772;2022-08-20T05:47:22;15.87;;;14.67;;
1837;SDS011;918;50.796;6.772;2022-08-20T05:49:52;16.43;;;15.13;;
1837;SDS011;918;50.796;6.772;2022-08-20T05:52:17;16.23;;;14.93;;
1837;SDS011;918;50.796;6.772;2022-08-20T05:54:42;15.73;;;14.47;;
1837;SDS011;918;50.796;6.772;2022-08-20T05:57:07;15.57;;;14.37;;
1837;SDS011;918;50.796;6.772;2022-08-20T05:59:33;12.70;;;11.70;;
1837;SDS011;918;50.796;6.772;2022-08-20T06:02:00;15.73;;;14.17;;
1837;SDS011;918;50.796;6.772;2022-08-20T06:04:25;14.23;;;13.03;;
1837;SDS011;918;50.796;6.772;2022-08-20T06:07:00;13.70;;;12.70;;
1837;SDS011;918;50.796;6.772;2022-08-20T06:09:28;12.93;;;11.83;;
1837;SDS011;918;50.796;6.772;2022-08-20T06:11:54;14.93;;;13.73;;
1837;SDS011;918;50.796;6.772;2022-08-20T06:14:19;15.20;;;13.70;;
1837;SDS011;918;50.796;6.772;2022-08-20T06:16:44;14.97;;;13.77;;
1837;SDS011;918;50.796;6.772;2022-08-20T06:19:10;15.40;;;14.10;;
1837;SDS011;918;50.796;6.772;2022-08-20T06:21:36;16.07;;;14.70;;
1837;SDS011;918;50.796;6.772;2022-08-20T06:24:01;17.60;;;15.90;;
1837;SDS011;918;50.796;6.772;2022-08-20T06:26:27;16.93;;;15.50;;
1837;SDS011;918;50.796;6.772;2022-08-20T06:28:52;15.93;;;14.63;;
1837;SDS011;918;50.796;6.772;2022-08-20T06:31:18;16.87;;;15.43;;
1837;SDS011;918;50.796;6.772;2022-08-20T06:33:43;17.10;;;15.60;;
1837;SDS011;918;50.796;6.772;2022-08-20T06:36:08;15.47;;;14.27;;
1837;SDS011;918;50.796;6.772;2022-08-20T06:38:34;16.30;;;14.80;;
1837;SDS011;918;50.796;6.772;2022-08-20T06:40:59;16.10;;;14.60;;
1837;SDS011;918;50.796;6.772;2022-08-20T06:43:24;16.47;;;15.17;;
1837;SDS011;918;50.796;6.772;2022-08-20T06:45:50;15.83;;;14.50;;
1837;SDS011;918;50.796;6.772;2022-08-20T06:48:15;14.53;;;13.33;;
1837;SDS011;918;50.796;6.772;2022-08-20T06:50:42;14.17;;;13.10;;
1837;SDS011;918;50.796;6.772;2022-08-20T06:53:10;12.40;;;11.23;;
1837;SDS011;918;50.796;6.772;2022-08-20T06:55:41;10.90;;;10.10;;
1837;SDS011;918;50.796;6.772;2022-08-20T06:58:09;11.27;;;10.37;;
1837;SDS011;918;50.796;6.772;2022-08-20T07:00:36;11.27;;;10.47;;
1837;SDS011;918;50.796;6.772;2022-08-20T07:03:03;9.50;;;8.70;;
1837;SDS011;918;50.796;6.772;2022-08-20T07:05:29;8.53;;;7.83;;
1837;SDS011;918;50.796;6.772;2022-08-20T07:07:57;8.07;;;7.37;;
1837;SDS011;918;50.796;6.772;2022-08-20T07:10:23;8.00;;;7.40;;
1837;SDS011;918;50.796;6.772;2022-08-20T07:12:49;7.80;;;7.20;;
1837;SDS011;918;50.796;6.772;2022-08-20T07:15:16;7.93;;;7.30;;
1837;SDS011;918;50.796;6.772;2022-08-20T07:17:47;8.93;;;8.23;;
1837;SDS011;918;50.796;6.772;2022-08-20T07:20:14;8.47;;;7.87;;
1837;SDS011;918;50.796;6.772;2022-08-20T07:22:39;7.83;;;7.23;;
1837;SDS011;918;50.796;6.772;2022-08-20T07:25:06;9.03;;;8.43;;
1837;SDS011;918;50.796;6.772;2022-08-20T07:27:34;9.13;;;8.43;;
1837;SDS011;918;50.796;6.772;2022-08-20T07:30:00;9.60;;;8.70;;
1837;SDS011;918;50.796;6.772;2022-08-20T07:32:45;10.33;;;9.57;;
1837;SDS011;918;50.796;6.772;2022-08-20T07:35:11;9.23;;;8.53;;
1837;SDS011;918;50.796;6.772;2022-08-20T07:37:39;10.10;;;9.20;;
1837;SDS011;918;50.796;6.772;2022-08-20T07:40:10;10.70;;;9.80;;
1837;SDS011;918;50.796;6.772;2022-08-20T07:42:37;10.73;;;9.93;;
1837;SDS011;918;50.796;6.772;2022-08-20T07:45:05;10.60;;;9.80;;
1837;SDS011;918;50.796;6.772;2022-08-20T07:47:32;10.30;;;9.43;;
1837;SDS011;918;50.796;6.772;2022-08-20T07:49:59;11.70;;;10.80;;
1837;SDS011;918;50.796;6.772;2022-08-20T07:52:25;11.77;;;10.67;;
1837;SDS011;918;50.796;6.772;2022-08-20T07:54:50;11.83;;;10.73;;
1837;SDS011;918;50.796;6.772;2022-08-20T07:57:16;11.63;;;10.83;;
1837;SDS011;918;50.796;6.772;2022-08-20T07:59:42;11.77;;;10.70;;
1837;SDS011;918;50.796;6.772;2022-08-20T08:02:09;12.93;;;11.83;;
1837;SDS011;918;50.796;6.772;2022-08-20T08:04:34;13.37;;;12.17;;
1837;SDS011;918;50.796;6.772;2022-08-20T08:07:01;12.80;;;11.63;;
1837;SDS011;918;50.796;6.772;2022-08-20T08:09:26;13.43;;;12.53;;
1837;SDS011;918;50.796;6.772;2022-08-20T08:11:52;12.47;;;11.63;;
1837;SDS011;918;50.796;6.772;2022-08-20T08:14:24;11.80;;;10.97;;
1837;SDS011;918;50.796;6.772;2022-08-20T08:16:54;11.37;;;10.57;;
1837;SDS011;918;50.796;6.772;2022-08-20T08:19:21;11.23;;;10.43;;
1837;SDS011;918;50.796;6.772;2022-08-20T08:21:47;9.90;;;9.20;;
1837;SDS011;918;50.796;6.772;2022-08-20T08:24:12;10.40;;;9.63;;
1837;SDS011;918;50.796;6.772;2022-08-20T08:26:38;11.07;;;10.27;;
1837;SDS011;918;50.796;6.772;2022-08-20T08:29:03;9.70;;;8.77;;
1837;SDS011;918;50.796;6.772;2022-08-20T08:31:31;10.37;;;9.60;;
1837;SDS011;918;50.796;6.772;2022-08-20T08:33:57;8.53;;;7.93;;
1837;SDS011;918;50.796;6.772;2022-08-20T08:36:22;9.93;;;9.23;;
1837;SDS011;918;50.796;6.772;2022-08-20T08:38:50;10.77;;;10.00;;
1837;SDS011;918;50.796;6.772;2022-08-20T08:43:43;9.50;;;8.80;;
1837;SDS011;918;50.796;6.772;2022-08-20T08:46:11;9.17;;;8.47;;
1837;SDS011;918;50.796;6.772;2022-08-20T08:48:38;8.90;;;8.20;;
1837;SDS011;918;50.796;6.772;2022-08-20T08:51:07;9.70;;;9.00;;
1837;SDS011;918;50.796;6.772;2022-08-20T08:53:36;10.60;;;9.80;;
1837;SDS011;918;50.796;6.772;2022-08-20T08:56:06;11.50;;;10.60;;
1837;SDS011;918;50.796;6.772;2022-08-20T08:58:31;10.30;;;9.60;;
1837;SDS011;918;50.796;6.772;2022-08-20T09:01:03;11.63;;;10.57;;
1837;SDS011;918;50.796;6.772;2022-08-20T09:03:33;12.83;;;11.83;;
1837;SDS011;918;50.796;6.772;2022-08-20T09:06:00;13.90;;;12.47;;
1837;SDS011;918;50.796;6.772;2022-08-20T09:08:29;10.83;;;10.07;;
1837;SDS011;918;50.796;6.772;2022-08-20T09:11:01;12.17;;;11.27;;
1837;SDS011;918;50.796;6.772;2022-08-20T09:13:30;11.37;;;10.47;;
1837;SDS011;918;50.796;6.772;2022-08-20T09:15:55;11.30;;;10.50;;
1837;SDS011;918;50.796;6.772;2022-08-20T09:18:21;11.00;;;10.40;;
1837;SDS011;918;50.796;6.772;2022-08-20T09:20:46;11.17;;;10.37;;
1837;SDS011;918;50.796;6.772;2022-08-20T09:23:11;11.33;;;10.43;;
1837;SDS011;918;50.796;6.772;2022-08-20T09:25:37;11.80;;;10.90;;
1837;SDS011;918;50.796;6.772;2022-08-20T09:28:02;10.70;;;10.00;;
1837;SDS011;918;50.796;6.772;2022-08-20T09:30:27;11.33;;;10.53;;
1837;SDS011;918;50.796;6.772;2022-08-20T09:32:53;11.53;;;10.70;;
1837;SDS011;918;50.796;6.772;2022-08-20T09:35:18;10.90;;;10.10;;
1837;SDS011;918;50.796;6.772;2022-08-20T09:37:43;10.00;;;9.20;;
1837;SDS011;918;50.796;6.772;2022-08-20T09:40:10;10.97;;;10.13;;
1837;SDS011;918;50.796;6.772;2022-08-20T09:42:36;11.53;;;10.70;;
1837;SDS011;918;50.796;6.772;2022-08-20T09:45:02;11.60;;;10.67;;
1837;SDS011;918;50.796;6.772;2022-08-20T09:47:27;10.93;;;9.93;;
1837;SDS011;918;50.796;6.772;2022-08-20T09:49:53;11.03;;;10.23;;
1837;SDS011;918;50.796;6.772;2022-08-20T09:52:23;10.63;;;9.93;;
1837;SDS011;918;50.796;6.772;2022-08-20T09:54:50;9.60;;;8.90;;
1837;SDS011;918;50.796;6.772;2022-08-20T09:57:17;10.10;;;9.13;;
1837;SDS011;918;50.796;6.772;2022-08-20T09:59:42;10.60;;;9.80;;
1837;SDS011;918;50.796;6.772;2022-08-20T10:02:12;9.93;;;9.23;;
1837;SDS011;918;50.796;6.772;2022-08-20T10:04:37;9.80;;;9.10;;
1837;SDS011;918;50.796;6.772;2022-08-20T10:07:05;8.33;;;7.80;;
1837;SDS011;918;50.796;6.772;2022-08-20T10:09:32;7.37;;;6.87;;
1837;SDS011;918;50.796;6.772;2022-08-20T10:11:58;9.80;;;9.00;;
1837;SDS011;918;50.796;6.772;2022-08-20T10:14:23;8.30;;;7.70;;
1837;SDS011;918;50.796;6.772;2022-08-20T10:16:56;8.70;;;8.00;;
1837;SDS011;918;50.796;6.772;2022-08-20T10:19:22;9.20;;;8.33;;
1837;SDS011;918;50.796;6.772;2022-08-20T10:21:49;7.97;;;7.33;;
1837;SDS011;918;50.796;6.772;2022-08-20T10:24:16;9.20;;;8.27;;
1837;SDS011;918;50.796;6.772;2022-08-20T10:26:42;9.30;;;8.40;;
1837;SDS011;918;50.796;6.772;2022-08-20T10:29:07;8.10;;;7.20;;
1837;SDS011;918;50.796;6.772;2022-08-20T10:31:32;10.00;;;9.10;;
1837;SDS011;918;50.796;6.772;2022-08-20T10:33:58;7.70;;;7.07;;
1837;SDS011;918;50.796;6.772;2022-08-20T10:36:23;7.90;;;7.40;;
1837;SDS011;918;50.796;6.772;2022-08-20T10:38:48;10.60;;;8.33;;
1837;SDS011;918;50.796;6.772;2022-08-20T10:41:14;10.97;;;7.67;;
1837;SDS011;918;50.796;6.772;2022-08-20T10:43:39;8.20;;;7.50;;
1837;SDS011;918;50.796;6.772;2022-08-20T10:46:04;8.10;;;7.40;;
1837;SDS011;918;50.796;6.772;2022-08-20T10:48:30;8.97;;;8.27;;
1837;SDS011;918;50.796;6.772;2022-08-20T10:50:55;8.70;;;7.90;;
1837;SDS011;918;50.796;6.772;2022-08-20T10:53:20;8.60;;;7.80;;
1837;SDS011;918;50.796;6.772;2022-08-20T10:55:45;9.30;;;8.60;;
1837;SDS011;918;50.796;6.772;2022-08-20T10:58:11;7.50;;;6.90;;
1837;SDS011;918;50.796;6.772;2022-08-20T11:00:37;8.57;;;7.83;;
1837;SDS011;918;50.796;6.772;2022-08-20T11:03:03;8.80;;;8.00;;
1837;SDS011;918;50.796;6.772;2022-08-20T11:05:28;8.77;;;6.90;;
1837;SDS011;918;50.796;6.772;2022-08-20T11:07:53;9.07;;;8.03;;
1837;SDS011;918;50.796;6.772;2022-08-20T11:10:19;7.70;;;7.10;;
1837;SDS011;918;50.796;6.772;2022-08-20T11:12:45;9.00;;;6.87;;
1837;SDS011;918;50.796;6.772;2022-08-20T11:15:11;8.23;;;6.30;;
1837;SDS011;918;50.796;6.772;2022-08-20T11:17:38;9.20;;;8.17;;
1837;SDS011;918;50.796;6.772;2022-08-20T11:20:05;8.37;;;7.60;;
1837;SDS011;918;50.796;6.772;2022-08-20T11:22:31;9.10;;;8.40;;
1837;SDS011;918;50.796;6.772;2022-08-20T11:24:57;9.63;;;8.77;;
1837;SDS011;918;50.796;6.772;2022-08-20T11:27:23;9.87;;;8.93;;
1837;SDS011;918;50.796;6.772;2022-08-20T11:29:51;10.17;;;9.10;;
1837;SDS011;918;50.796;6.772;2022-08-20T11:32:17;10.63;;;9.50;;
1837;SDS011;918;50.796;6.772;2022-08-20T11:34:42;11.20;;;9.37;;
1837;SDS011;918;50.796;6.772;2022-08-20T11:37:07;10.67;;;9.77;;
1837;SDS011;918;50.796;6.772;2022-08-20T11:39:33;12.03;;;10.83;;
1837;SDS011;918;50.796;6.772;2022-08-20T11:41:58;11.67;;;10.47;;
1837;SDS011;918;50.796;6.772;2022-08-20T11:44:23;10.10;;;9.40;;
1837;SDS011;918;50.796;6.772;2022-08-20T11:46:48;11.23;;;10.33;;
1837;SDS011;918;50.796;6.772;2022-08-20T11:49:14;10.53;;;9.30;;
1837;SDS011;918;50.796;6.772;2022-08-20T11:51:39;10.70;;;9.70;;
1837;SDS011;918;50.796;6.772;2022-08-20T11:54:04;9.63;;;8.73;;
1837;SDS011;918;50.796;6.772;2022-08-20T11:56:30;11.00;;;9.03;;
1837;SDS011;918;50.796;6.772;2022-08-20T11:58:56;9.63;;;8.90;;
1837;SDS011;918;50.796;6.772;2022-08-20T12:01:21;9.80;;;8.90;;
1837;SDS011;918;50.796;6.772;2022-08-20T12:03:46;10.70;;;9.40;;
1837;SDS011;918;50.796;6.772;2022-08-20T12:06:12;12.03;;;9.57;;
1837;SDS011;918;50.796;6.772;2022-08-20T12:08:37;10.30;;;8.00;;
1837;SDS011;918;50.796;6.772;2022-08-20T12:11:02;10.57;;;9.57;;
1837;SDS011;918;50.796;6.772;2022-08-20T12:13:29;9.70;;;8.70;;
1837;SDS011;918;50.796;6.772;2022-08-20T12:15:57;9.40;;;8.33;;
1837;SDS011;918;50.796;6.772;2022-08-20T12:18:22;9.33;;;6.93;;
1837;SDS011;918;50.796;6.772;2022-08-20T12:20:48;11.40;;;8.20;;
1837;SDS011;918;50.796;6.772;2022-08-20T12:23:13;11.60;;;9.10;;
1837;SDS011;918;50.796;6.772;2022-08-20T12:25:39;7.47;;;6.43;;
1837;SDS011;918;50.796;6.772;2022-08-20T12:28:04;11.80;;;8.10;;
1837;SDS011;918;50.796;6.772;2022-08-20T12:30:30;8.20;;;7.30;;
1837;SDS011;918;50.796;6.772;2022-08-20T12:32:56;8.53;;;6.20;;
1837;SDS011;918;50.796;6.772;2022-08-20T12:35:21;13.27;;;7.40;;
1837;SDS011;918;50.796;6.772;2022-08-20T12:37:46;9.47;;;6.53;;
1837;SDS011;918;50.796;6.772;2022-08-20T12:40:20;9.20;;;6.77;;
1837;SDS011;918;50.796;6.772;2022-08-20T12:42:48;10.30;;;6.40;;
1837;SDS011;918;50.796;6.772;2022-08-20T12:45:13;9.03;;;6.53;;
1837;SDS011;918;50.796;6.772;2022-08-20T12:47:41;11.70;;;6.90;;
1837;SDS011;918;50.796;6.772;2022-08-20T12:52:38;8.70;;;6.47;;
1837;SDS011;918;50.796;6.772;2022-08-20T12:55:04;7.57;;;6.23;;
1837;SDS011;918;50.796;6.772;2022-08-20T12:57:34;7.33;;;5.63;;
1837;SDS011;918;50.796;6.772;2022-08-20T13:00:04;9.33;;;6.27;;
1837;SDS011;918;50.796;6.772;2022-08-20T13:02:32;11.13;;;7.27;;
1837;SDS011;918;50.796;6.772;2022-08-20T13:04:57;8.33;;;6.20;;
1837;SDS011;918;50.796;6.772;2022-08-20T13:07:23;6.57;;;5.60;;
1837;SDS011;918;50.796;6.772;2022-08-20T13:09:48;9.93;;;5.97;;
1837;SDS011;918;50.796;6.772;2022-08-20T13:12:13;8.73;;;6.77;;
1837;SDS011;918;50.796;6.772;2022-08-20T13:14:39;7.60;;;6.77;;
1837;SDS011;918;50.796;6.772;2022-08-20T13:17:05;7.10;;;5.67;;
1837;SDS011;918;50.796;6.772;2022-08-20T13:19:31;9.77;;;5.77;;
1837;SDS011;918;50.796;6.772;2022-08-20T13:21:57;8.77;;;5.60;;
1837;SDS011;918;50.796;6.772;2022-08-20T13:24:22;7.87;;;6.00;;
1837;SDS011;918;50.796;6.772;2022-08-20T13:26:48;9.90;;;6.30;;
1837;SDS011;918;50.796;6.772;2022-08-20T13:29:15;7.83;;;5.30;;
1837;SDS011;918;50.796;6.772;2022-08-20T13:31:40;8.27;;;5.33;;
1837;SDS011;918;50.796;6.772;2022-08-20T13:34:06;6.70;;;4.17;;
1837;SDS011;918;50.796;6.772;2022-08-20T13:36:31;7.93;;;4.57;;
1837;SDS011;918;50.796;6.772;2022-08-20T13:38:57;7.37;;;4.53;;
1837;SDS011;918;50.796;6.772;2022-08-20T13:41:22;7.40;;;3.90;;
1837;SDS011;918;50.796;6.772;2022-08-20T13:43:47;7.93;;;4.23;;
1837;SDS011;918;50.796;6.772;2022-08-20T13:46:12;6.37;;;4.00;;
1837;SDS011;918;50.796;6.772;2022-08-20T13:48:38;5.57;;;3.43;;
1837;SDS011;918;50.796;6.772;2022-08-20T13:51:03;5.90;;;4.63;;
1837;SDS011;918;50.796;6.772;2022-08-20T13:53:28;5.33;;;3.10;;
1837;SDS011;918;50.796;6.772;2022-08-20T13:55:54;6.37;;;3.43;;
1837;SDS011;918;50.796;6.772;2022-08-20T13:58:19;5.07;;;3.50;;
1837;SDS011;918;50.796;6.772;2022-08-20T14:00:46;6.70;;;3.87;;
1837;SDS011;918;50.796;6.772;2022-08-20T14:03:12;4.17;;;3.27;;
1837;SDS011;918;50.796;6.772;2022-08-20T14:05:37;6.47;;;3.63;;
1837;SDS011;918;50.796;6.772;2022-08-20T14:08:04;6.60;;;3.17;;
1837;SDS011;918;50.796;6.772;2022-08-20T14:10:33;5.90;;;3.60;;
1837;SDS011;918;50.796;6.772;2022-08-20T14:12:59;6.60;;;4.10;;
1837;SDS011;918;50.796;6.772;2022-08-20T14:15:24;5.87;;;3.60;;
1837;SDS011;918;50.796;6.772;2022-08-20T14:17:53;4.63;;;3.23;;
1837;SDS011;918;50.796;6.772;2022-08-20T14:20:21;10.53;;;4.20;;
1837;SDS011;918;50.796;6.772;2022-08-20T14:22:48;5.13;;;3.37;;
1837;SDS011;918;50.796;6.772;2022-08-20T14:25:14;6.47;;;3.43;;
1837;SDS011;918;50.796;6.772;2022-08-20T14:27:41;4.70;;;3.17;;
1837;SDS011;918;50.796;6.772;2022-08-20T14:30:08;6.17;;;3.93;;
1837;SDS011;918;50.796;6.772;2022-08-20T14:32:38;5.73;;;3.20;;
1837;SDS011;918;50.796;6.772;2022-08-20T14:35:04;9.10;;;3.17;;
1837;SDS011;918;50.796;6.772;2022-08-20T14:37:31;4.50;;;2.83;;
1837;SDS011;918;50.796;6.772;2022-08-20T14:39:59;4.93;;;3.00;;
1837;SDS011;918;50.796;6.772;2022-08-20T14:42:26;4.00;;;2.80;;
1837;SDS011;918;50.796;6.772;2022-08-20T14:44:56;5.57;;;3.30;;
1837;SDS011;918;50.796;6.772;2022-08-20T14:47:23;4.60;;;3.07;;
1837;SDS011;918;50.796;6.772;2022-08-20T14:49:51;7.80;;;3.07;;
1837;SDS011;918;50.796;6.772;2022-08-20T14:52:18;3.40;;;2.73;;
1837;SDS011;918;50.796;6.772;2022-08-20T14:54:44;4.97;;;2.83;;
1837;SDS011;918;50.796;6.772;2022-08-20T14:57:10;6.80;;;2.87;;
1837;SDS011;918;50.796;6.772;2022-08-20T14:59:36;3.03;;;2.60;;
1837;SDS011;918;50.796;6.772;2022-08-20T15:02:03;5.23;;;2.43;;
1837;SDS011;918;50.796;6.772;2022-08-20T15:04:30;2.90;;;1.83;;
1837;SDS011;918;50.796;6.772;2022-08-20T15:06:56;3.00;;;2.60;;
1837;SDS011;918;50.796;6.772;2022-08-20T15:09:21;5.30;;;3.17;;
1837;SDS011;918;50.796;6.772;2022-08-20T15:11:46;5.03;;;2.70;;
1837;SDS011;918;50.796;6.772;2022-08-20T15:14:12;5.70;;;3.17;;
1837;SDS011;918;50.796;6.772;2022-08-20T15:16:37;4.97;;;3.10;;
1837;SDS011;918;50.796;6.772;2022-08-20T15:19:03;5.43;;;2.67;;
1837;SDS011;918;50.796;6.772;2022-08-20T15:21:28;9.97;;;3.30;;